sensor_id;sensor_type;location;lat;lon;timestamp;pressure;altitude;pressure_sealevel;temperature;humidity
35910;BME280;22004;49.120;-0.200;2023-04-07T00:01:15;101718.69;;;11.16;67.67
35910;BME280;22004;49.120;-0.200;2023-04-07T00:03:40;101721.84;;;11.11;67.75
35910;BME280;22004;49.120;-0.200;2023-04-07T00:06:06;101725.44;;;10.68;69.22
35910;BME280;22004;49.120;-0.200;2023-04-07T00:08:31;101727.41;;;11.18;67.90
35910;BME280;22004;49.120;-0.200;2023-04-07T00:10:57;101717.59;;;11.35;67.50
35910;BME280;22004;49.120;-0.200;2023-04-07T00:13:22;101721.41;;;11.24;67.40
35910;BME280;22004;49.120;-0.200;2023-04-07T00:15:48;101726.31;;;11.03;68.26
35910;BME280;22004;49.120;-0.200;2023-04-07T00:18:13;101721.69;;;11.13;67.69
35910;BME280;22004;49.120;-0.200;2023-04-07T00:20:39;101726.34;;;10.77;68.80
35910;BME280;22004;49.120;-0.200;2023-04-07T00:23:04;101732.75;;;10.84;68.57
35910;BME280;22004;49.120;-0.200;2023-04-07T00:25:29;101725.19;;;11.05;68.09
35910;BME280;22004;49.120;-0.200;2023-04-07T00:27:55;101720.47;;;11.07;67.65
35910;BME280;22004;49.120;-0.200;2023-04-07T00:30:20;101724.72;;;11.10;67.60
35910;BME280;22004;49.120;-0.200;2023-04-07T00:32:46;101721.53;;;10.88;68.53
35910;BME280;22004;49.120;-0.200;2023-04-07T00:35:11;101716.75;;;11.00;67.90
35910;BME280;22004;49.120;-0.200;2023-04-07T00:37:36;101722.91;;;10.93;67.60
35910;BME280;22004;49.120;-0.200;2023-04-07T00:40:02;101726.03;;;11.06;67.77
35910;BME280;22004;49.120;-0.200;2023-04-07T00:42:28;101729.56;;;10.80;67.97
35910;BME280;22004;49.120;-0.200;2023-04-07T00:44:53;101724.81;;;11.00;67.95
35910;BME280;22004;49.120;-0.200;2023-04-07T00:47:19;101722.50;;;11.13;67.23
35910;BME280;22004;49.120;-0.200;2023-04-07T00:49:44;101722.44;;;10.97;68.07
35910;BME280;22004;49.120;-0.200;2023-04-07T00:52:11;101710.97;;;11.21;67.25
35910;BME280;22004;49.120;-0.200;2023-04-07T00:54:37;101721.53;;;11.15;67.44
35910;BME280;22004;49.120;-0.200;2023-04-07T00:57:03;101725.97;;;10.98;67.31
35910;BME280;22004;49.120;-0.200;2023-04-07T00:59:29;101722.78;;;10.94;67.36
35910;BME280;22004;49.120;-0.200;2023-04-07T01:02:16;101724.00;;;11.08;67.62
35910;BME280;22004;49.120;-0.200;2023-04-07T01:07:47;101723.34;;;11.06;67.31
35910;BME280;22004;49.120;-0.200;2023-04-07T01:10:20;101729.09;;;10.85;67.96
35910;BME280;22004;49.120;-0.200;2023-04-07T01:12:56;101732.66;;;10.94;67.84
35910;BME280;22004;49.120;-0.200;2023-04-07T01:15:26;101731.50;;;10.96;67.48
35910;BME280;22004;49.120;-0.200;2023-04-07T01:17:59;101722.25;;;10.99;67.53
35910;BME280;22004;49.120;-0.200;2023-04-07T01:20:26;101730.88;;;11.02;67.83
35910;BME280;22004;49.120;-0.200;2023-04-07T01:23:00;101728.28;;;10.93;67.68
35910;BME280;22004;49.120;-0.200;2023-04-07T01:25:34;101731.69;;;11.03;67.33
35910;BME280;22004;49.120;-0.200;2023-04-07T01:30:31;101724.19;;;10.80;68.57
35910;BME280;22004;49.120;-0.200;2023-04-07T01:32:58;101726.03;;;10.80;68.41
35910;BME280;22004;49.120;-0.200;2023-04-07T01:35:26;101729.84;;;11.03;67.63
35910;BME280;22004;49.120;-0.200;2023-04-07T01:37:54;101733.31;;;10.44;69.40
35910;BME280;22004;49.120;-0.200;2023-04-07T01:40:20;101736.69;;;10.90;67.98
35910;BME280;22004;49.120;-0.200;2023-04-07T01:42:46;101733.66;;;10.67;68.55
35910;BME280;22004;49.120;-0.200;2023-04-07T01:45:15;101732.28;;;10.88;68.27
35910;BME280;22004;49.120;-0.200;2023-04-07T01:47:40;101724.59;;;10.94;67.81
35910;BME280;22004;49.120;-0.200;2023-04-07T01:50:06;101720.19;;;10.84;68.03
35910;BME280;22004;49.120;-0.200;2023-04-07T01:52:35;101723.25;;;10.90;67.94
35910;BME280;22004;49.120;-0.200;2023-04-07T01:55:03;101721.22;;;10.92;67.94
35910;BME280;22004;49.120;-0.200;2023-04-07T01:57:29;101731.91;;;10.83;67.91
35910;BME280;22004;49.120;-0.200;2023-04-07T01:59:54;101728.47;;;10.91;67.89
35910;BME280;22004;49.120;-0.200;2023-04-07T02:02:20;101731.06;;;10.83;68.35
35910;BME280;22004;49.120;-0.200;2023-04-07T02:04:55;101727.81;;;10.71;68.14
35910;BME280;22004;49.120;-0.200;2023-04-07T02:10:16;101731.81;;;10.67;68.08
35910;BME280;22004;49.120;-0.200;2023-04-07T02:12:45;101738.66;;;10.61;68.80
35910;BME280;22004;49.120;-0.200;2023-04-07T02:15:11;101738.00;;;10.59;68.46
35910;BME280;22004;49.120;-0.200;2023-04-07T02:17:39;101736.28;;;10.58;68.54
35910;BME280;22004;49.120;-0.200;2023-04-07T02:20:10;101741.28;;;10.53;68.77
35910;BME280;22004;49.120;-0.200;2023-04-07T02:22:38;101737.06;;;10.51;68.37
35910;BME280;22004;49.120;-0.200;2023-04-07T02:25:20;101743.38;;;10.42;68.65
35910;BME280;22004;49.120;-0.200;2023-04-07T02:27:45;101743.38;;;10.42;68.59
35910;BME280;22004;49.120;-0.200;2023-04-07T02:30:11;101734.66;;;10.40;68.47
35910;BME280;22004;49.120;-0.200;2023-04-07T02:32:36;101746.13;;;10.50;68.14
35910;BME280;22004;49.120;-0.200;2023-04-07T02:35:02;101748.94;;;10.48;68.23
35910;BME280;22004;49.120;-0.200;2023-04-07T02:37:28;101737.38;;;10.48;68.63
35910;BME280;22004;49.120;-0.200;2023-04-07T02:39:53;101742.06;;;10.46;68.26
35910;BME280;22004;49.120;-0.200;2023-04-07T02:42:18;101741.69;;;10.41;68.54
35910;BME280;22004;49.120;-0.200;2023-04-07T02:44:44;101736.06;;;10.52;68.13
35910;BME280;22004;49.120;-0.200;2023-04-07T02:47:09;101740.88;;;10.66;68.39
35910;BME280;22004;49.120;-0.200;2023-04-07T02:49:35;101740.88;;;10.66;68.14
35910;BME280;22004;49.120;-0.200;2023-04-07T02:52:00;101745.41;;;10.66;67.72
35910;BME280;22004;49.120;-0.200;2023-04-07T02:54:26;101740.88;;;10.66;67.81
35910;BME280;22004;49.120;-0.200;2023-04-07T02:56:51;101745.72;;;10.63;67.60
35910;BME280;22004;49.120;-0.200;2023-04-07T02:59:17;101741.03;;;10.65;67.57
35910;BME280;22004;49.120;-0.200;2023-04-07T03:01:42;101737.25;;;10.75;67.76
35910;BME280;22004;49.120;-0.200;2023-04-07T03:04:07;101746.31;;;10.74;67.21
35910;BME280;22004;49.120;-0.200;2023-04-07T03:06:32;101742.16;;;10.80;67.07
35910;BME280;22004;49.120;-0.200;2023-04-07T03:08:58;101744.22;;;10.86;67.12
35910;BME280;22004;49.120;-0.200;2023-04-07T03:11:23;101750.81;;;10.74;67.43
35910;BME280;22004;49.120;-0.200;2023-04-07T03:13:48;101749.38;;;10.79;66.97
35910;BME280;22004;49.120;-0.200;2023-04-07T03:16:14;101746.78;;;10.70;66.66
35910;BME280;22004;49.120;-0.200;2023-04-07T03:18:39;101742.84;;;10.82;67.30
35910;BME280;22004;49.120;-0.200;2023-04-07T03:21:05;101751.81;;;10.73;67.81
35910;BME280;22004;49.120;-0.200;2023-04-07T03:23:30;101741.34;;;10.87;67.02
35910;BME280;22004;49.120;-0.200;2023-04-07T03:25:56;101740.97;;;10.82;67.21
35910;BME280;22004;49.120;-0.200;2023-04-07T03:28:22;101748.19;;;10.82;66.85
35910;BME280;22004;49.120;-0.200;2023-04-07T03:30:47;101738.78;;;10.78;66.88
35910;BME280;22004;49.120;-0.200;2023-04-07T03:33:12;101745.50;;;10.82;66.88
35910;BME280;22004;49.120;-0.200;2023-04-07T03:35:38;101748.78;;;10.68;67.23
35910;BME280;22004;49.120;-0.200;2023-04-07T03:38:03;101748.41;;;10.63;67.35
35910;BME280;22004;49.120;-0.200;2023-04-07T03:40:28;101757.63;;;10.60;67.81
35910;BME280;22004;49.120;-0.200;2023-04-07T03:42:54;101760.06;;;10.53;67.44
35910;BME280;22004;49.120;-0.200;2023-04-07T03:45:19;101752.00;;;10.53;67.85
35910;BME280;22004;49.120;-0.200;2023-04-07T03:47:45;101752.25;;;10.42;67.91
35910;BME280;22004;49.120;-0.200;2023-04-07T03:50:10;101751.34;;;10.51;67.49
35910;BME280;22004;49.120;-0.200;2023-04-07T03:52:35;101747.47;;;10.54;67.43
35910;BME280;22004;49.120;-0.200;2023-04-07T03:55:01;101746.72;;;10.44;67.71
35910;BME280;22004;49.120;-0.200;2023-04-07T03:57:26;101747.09;;;10.49;67.79
35910;BME280;22004;49.120;-0.200;2023-04-07T03:59:52;101744.91;;;10.44;67.56
35910;BME280;22004;49.120;-0.200;2023-04-07T04:02:17;101746.25;;;10.48;67.53
35910;BME280;22004;49.120;-0.200;2023-04-07T04:04:43;101746.72;;;10.44;67.76
35910;BME280;22004;49.120;-0.200;2023-04-07T04:07:08;101746.81;;;10.34;67.71
35910;BME280;22004;49.120;-0.200;2023-04-07T04:09:33;101753.72;;;10.37;67.77
35910;BME280;22004;49.120;-0.200;2023-04-07T04:11:59;101756.88;;;10.32;67.42
35910;BME280;22004;49.120;-0.200;2023-04-07T04:14:25;101751.22;;;10.35;67.38
35910;BME280;22004;49.120;-0.200;2023-04-07T04:16:50;101754.50;;;10.29;67.23
35910;BME280;22004;49.120;-0.200;2023-04-07T04:19:15;101754.88;;;10.34;67.14
35910;BME280;22004;49.120;-0.200;2023-04-07T04:21:41;101750.84;;;10.30;67.34
35910;BME280;22004;49.120;-0.200;2023-04-07T04:24:06;101760.09;;;10.35;67.61
35910;BME280;22004;49.120;-0.200;2023-04-07T04:26:32;101760.72;;;10.29;67.64
35910;BME280;22004;49.120;-0.200;2023-04-07T04:28:57;101765.94;;;10.31;67.25
35910;BME280;22004;49.120;-0.200;2023-04-07T04:31:22;101768.28;;;10.34;67.42
35910;BME280;22004;49.120;-0.200;2023-04-07T04:33:48;101769.66;;;10.20;67.58
35910;BME280;22004;49.120;-0.200;2023-04-07T04:36:13;101773.03;;;10.22;67.38
35910;BME280;22004;49.120;-0.200;2023-04-07T04:38:38;101761.19;;;10.25;66.92
35910;BME280;22004;49.120;-0.200;2023-04-07T04:41:04;101773.09;;;10.13;67.22
35910;BME280;22004;49.120;-0.200;2023-04-07T04:43:29;101770.22;;;10.24;67.53
35910;BME280;22004;49.120;-0.200;2023-04-07T04:45:55;101772.88;;;10.24;67.24
35910;BME280;22004;49.120;-0.200;2023-04-07T04:48:21;101776.16;;;10.18;67.24
35910;BME280;22004;49.120;-0.200;2023-04-07T04:50:46;101774.69;;;10.23;66.95
35910;BME280;22004;49.120;-0.200;2023-04-07T04:53:12;101778.69;;;10.19;66.87
35910;BME280;22004;49.120;-0.200;2023-04-07T04:55:37;101765.88;;;10.13;67.15
35910;BME280;22004;49.120;-0.200;2023-04-07T04:58:05;101778.00;;;10.17;67.39
35910;BME280;22004;49.120;-0.200;2023-04-07T05:00:30;101772.88;;;10.06;67.14
35910;BME280;22004;49.120;-0.200;2023-04-07T05:02:56;101778.25;;;10.06;67.50
35910;BME280;22004;49.120;-0.200;2023-04-07T05:05:21;101774.84;;;10.04;67.38
35910;BME280;22004;49.120;-0.200;2023-04-07T05:07:46;101768.34;;;10.06;67.16
35910;BME280;22004;49.120;-0.200;2023-04-07T05:10:12;101776.69;;;10.03;67.22
35910;BME280;22004;49.120;-0.200;2023-04-07T05:12:37;101777.53;;;10.04;67.38
35910;BME280;22004;49.120;-0.200;2023-04-07T05:15:03;101781.66;;;9.98;67.08
35910;BME280;22004;49.120;-0.200;2023-04-07T05:17:28;101780.13;;;9.96;67.57
35910;BME280;22004;49.120;-0.200;2023-04-07T05:19:54;101784.22;;;10.00;67.32
35910;BME280;22004;49.120;-0.200;2023-04-07T05:22:19;101784.34;;;9.98;67.50
35910;BME280;22004;49.120;-0.200;2023-04-07T05:24:44;101782.28;;;9.92;67.55
35910;BME280;22004;49.120;-0.200;2023-04-07T05:27:10;101789.47;;;9.92;67.46
35910;BME280;22004;49.120;-0.200;2023-04-07T05:29:35;101778.75;;;9.92;67.49
35910;BME280;22004;49.120;-0.200;2023-04-07T05:32:01;101783.66;;;9.96;67.47
35910;BME280;22004;49.120;-0.200;2023-04-07T05:34:26;101784.50;;;9.97;67.57
35910;BME280;22004;49.120;-0.200;2023-04-07T05:36:52;101787.69;;;9.82;67.25
35910;BME280;22004;49.120;-0.200;2023-04-07T05:39:17;101788.19;;;9.96;67.79
35910;BME280;22004;49.120;-0.200;2023-04-07T05:41:42;101788.81;;;9.90;67.49
35910;BME280;22004;49.120;-0.200;2023-04-07T05:44:08;101785.91;;;10.01;67.29
35910;BME280;22004;49.120;-0.200;2023-04-07T05:46:33;101786.78;;;9.92;66.96
35910;BME280;22004;49.120;-0.200;2023-04-07T05:48:58;101787.94;;;9.89;66.81
35910;BME280;22004;49.120;-0.200;2023-04-07T05:51:24;101798.59;;;9.99;66.95
35910;BME280;22004;49.120;-0.200;2023-04-07T05:53:50;101792.00;;;9.93;67.26
35910;BME280;22004;49.120;-0.200;2023-04-07T05:56:16;101797.38;;;9.93;66.97
35910;BME280;22004;49.120;-0.200;2023-04-07T05:58:41;101803.13;;;9.98;66.79
35910;BME280;22004;49.120;-0.200;2023-04-07T06:01:07;101799.16;;;10.02;66.60
35910;BME280;22004;49.120;-0.200;2023-04-07T06:03:32;101801.94;;;10.10;66.69
35910;BME280;22004;49.120;-0.200;2023-04-07T06:05:57;101795.63;;;10.02;66.31
35910;BME280;22004;49.120;-0.200;2023-04-07T06:08:23;101799.31;;;10.19;66.05
35910;BME280;22004;49.120;-0.200;2023-04-07T06:10:48;101801.50;;;10.33;65.67
35910;BME280;22004;49.120;-0.200;2023-04-07T06:13:13;101802.97;;;10.27;66.32
35910;BME280;22004;49.120;-0.200;2023-04-07T06:15:39;101803.50;;;10.31;66.02
35910;BME280;22004;49.120;-0.200;2023-04-07T06:18:04;101811.78;;;10.38;65.70
35910;BME280;22004;49.120;-0.200;2023-04-07T06:20:30;101812.94;;;10.35;65.68
35910;BME280;22004;49.120;-0.200;2023-04-07T06:22:55;101817.94;;;10.30;66.15
35910;BME280;22004;49.120;-0.200;2023-04-07T06:25:20;101813.91;;;10.34;65.52
35910;BME280;22004;49.120;-0.200;2023-04-07T06:27:46;101822.69;;;10.36;65.74
35910;BME280;22004;49.120;-0.200;2023-04-07T06:30:12;101824.53;;;10.35;66.01
35910;BME280;22004;49.120;-0.200;2023-04-07T06:32:37;101824.91;;;10.41;65.68
35910;BME280;22004;49.120;-0.200;2023-04-07T06:35:03;101828.72;;;10.38;65.47
35910;BME280;22004;49.120;-0.200;2023-04-07T06:37:28;101829.81;;;10.45;65.74
35910;BME280;22004;49.120;-0.200;2023-04-07T06:39:53;101829.13;;;10.43;65.95
35910;BME280;22004;49.120;-0.200;2023-04-07T06:42:19;101831.97;;;10.42;65.70
35910;BME280;22004;49.120;-0.200;2023-04-07T06:44:44;101835.09;;;10.37;65.93
35910;BME280;22004;49.120;-0.200;2023-04-07T06:47:10;101832.50;;;10.45;65.78
35910;BME280;22004;49.120;-0.200;2023-04-07T06:49:35;101836.09;;;10.54;65.93
35910;BME280;22004;49.120;-0.200;2023-04-07T06:52:01;101839.41;;;10.66;65.17
35910;BME280;22004;49.120;-0.200;2023-04-07T06:54:26;101840.19;;;11.54;62.51
35910;BME280;22004;49.120;-0.200;2023-04-07T06:56:52;101839.72;;;12.76;59.06
35910;BME280;22004;49.120;-0.200;2023-04-07T06:59:17;101846.84;;;14.12;54.89
35910;BME280;22004;49.120;-0.200;2023-04-07T07:01:42;101844.16;;;15.57;51.04
35910;BME280;22004;49.120;-0.200;2023-04-07T07:04:09;101840.44;;;17.09;47.00
35910;BME280;22004;49.120;-0.200;2023-04-07T07:06:34;101842.44;;;17.22;46.38
35910;BME280;22004;49.120;-0.200;2023-04-07T07:09:00;101831.75;;;17.55;45.67
35910;BME280;22004;49.120;-0.200;2023-04-07T07:11:27;101836.22;;;17.35;45.94
35910;BME280;22004;49.120;-0.200;2023-04-07T07:13:52;101840.66;;;17.36;46.08
35910;BME280;22004;49.120;-0.200;2023-04-07T07:16:18;101841.09;;;18.15;44.25
35910;BME280;22004;49.120;-0.200;2023-04-07T07:18:43;101846.00;;;17.92;44.83
35910;BME280;22004;49.120;-0.200;2023-04-07T07:21:08;101849.44;;;17.44;45.76
35910;BME280;22004;49.120;-0.200;2023-04-07T07:23:34;101851.06;;;16.61;47.50
35910;BME280;22004;49.120;-0.200;2023-04-07T07:25:59;101846.31;;;16.48;48.25
35910;BME280;22004;49.120;-0.200;2023-04-07T07:28:25;101845.75;;;16.32;48.76
35910;BME280;22004;49.120;-0.200;2023-04-07T07:30:50;101849.16;;;16.76;47.98
35910;BME280;22004;49.120;-0.200;2023-04-07T07:33:15;101858.13;;;16.77;48.04
35910;BME280;22004;49.120;-0.200;2023-04-07T07:35:41;101857.22;;;17.19;47.29
35910;BME280;22004;49.120;-0.200;2023-04-07T07:38:06;101854.75;;;17.59;46.19
35910;BME280;22004;49.120;-0.200;2023-04-07T07:40:32;101849.09;;;17.89;45.55
35910;BME280;22004;49.120;-0.200;2023-04-07T07:42:59;101847.66;;;17.23;47.05
35910;BME280;22004;49.120;-0.200;2023-04-07T07:45:24;101849.91;;;17.20;46.72
35910;BME280;22004;49.120;-0.200;2023-04-07T07:47:50;101856.47;;;15.89;50.44
35910;BME280;22004;49.120;-0.200;2023-04-07T07:50:15;101857.47;;;16.96;47.99
35910;BME280;22004;49.120;-0.200;2023-04-07T07:52:40;101856.09;;;15.47;52.89
35910;BME280;22004;49.120;-0.200;2023-04-07T07:55:07;101860.25;;;16.82;49.47
35910;BME280;22004;49.120;-0.200;2023-04-07T07:57:33;101853.28;;;15.85;51.60
35910;BME280;22004;49.120;-0.200;2023-04-07T07:59:58;101865.06;;;15.10;53.63
35910;BME280;22004;49.120;-0.200;2023-04-07T08:02:24;101866.16;;;15.01;54.57
35910;BME280;22004;49.120;-0.200;2023-04-07T08:04:55;101863.13;;;16.59;50.07
35910;BME280;22004;49.120;-0.200;2023-04-07T08:07:20;101868.75;;;16.78;49.13
35910;BME280;22004;49.120;-0.200;2023-04-07T08:09:46;101873.47;;;16.34;49.81
35910;BME280;22004;49.120;-0.200;2023-04-07T08:12:11;101869.00;;;16.26;50.20
35910;BME280;22004;49.120;-0.200;2023-04-07T08:14:36;101873.44;;;16.48;49.85
35910;BME280;22004;49.120;-0.200;2023-04-07T08:17:02;101874.66;;;16.10;49.70
35910;BME280;22004;49.120;-0.200;2023-04-07T08:19:27;101876.03;;;16.57;49.09
35910;BME280;22004;49.120;-0.200;2023-04-07T08:21:52;101874.50;;;17.12;47.84
35910;BME280;22004;49.120;-0.200;2023-04-07T08:24:18;101878.16;;;17.04;48.31
35910;BME280;22004;49.120;-0.200;2023-04-07T08:26:43;101885.22;;;17.82;47.88
35910;BME280;22004;49.120;-0.200;2023-04-07T08:29:09;101885.41;;;16.03;51.51
35910;BME280;22004;49.120;-0.200;2023-04-07T08:31:35;101885.13;;;17.13;48.38
35910;BME280;22004;49.120;-0.200;2023-04-07T08:34:00;101886.38;;;16.89;49.08
35910;BME280;22004;49.120;-0.200;2023-04-07T08:36:26;101886.47;;;16.38;50.24
35910;BME280;22004;49.120;-0.200;2023-04-07T08:38:53;101887.59;;;17.08;48.62
35910;BME280;22004;49.120;-0.200;2023-04-07T08:41:47;101886.69;;;17.50;47.58
35910;BME280;22004;49.120;-0.200;2023-04-07T08:44:14;101881.72;;;16.25;49.09
35910;BME280;22004;49.120;-0.200;2023-04-07T08:46:41;101890.91;;;16.82;47.70
35910;BME280;22004;49.120;-0.200;2023-04-07T08:49:09;101897.91;;;16.04;48.64
35910;BME280;22004;49.120;-0.200;2023-04-07T08:51:37;101886.09;;;17.27;46.96
35910;BME280;22004;49.120;-0.200;2023-04-07T08:54:07;101890.47;;;16.64;48.44
35910;BME280;22004;49.120;-0.200;2023-04-07T08:56:33;101888.78;;;17.55;46.88
35910;BME280;22004;49.120;-0.200;2023-04-07T08:59:05;101897.03;;;15.59;51.73
35910;BME280;22004;49.120;-0.200;2023-04-07T09:01:31;101901.06;;;15.48;51.67
35910;BME280;22004;49.120;-0.200;2023-04-07T09:03:57;101901.25;;;15.09;53.43
35910;BME280;22004;49.120;-0.200;2023-04-07T09:06:24;101900.13;;;13.71;55.36
35910;BME280;22004;49.120;-0.200;2023-04-07T09:08:51;101897.84;;;13.11;56.26
35910;BME280;22004;49.120;-0.200;2023-04-07T09:11:16;101905.75;;;13.04;57.01
35910;BME280;22004;49.120;-0.200;2023-04-07T09:13:41;101900.53;;;15.30;51.88
35910;BME280;22004;49.120;-0.200;2023-04-07T09:16:07;101901.59;;;15.82;50.74
35910;BME280;22004;49.120;-0.200;2023-04-07T09:18:32;101902.28;;;16.05;52.69
35910;BME280;22004;49.120;-0.200;2023-04-07T09:21:03;101897.72;;;14.86;50.82
35910;BME280;22004;49.120;-0.200;2023-04-07T09:23:40;101898.28;;;15.86;50.30
35910;BME280;22004;49.120;-0.200;2023-04-07T09:28:59;101903.81;;;15.78;50.57
35910;BME280;22004;49.120;-0.200;2023-04-07T09:31:49;101908.00;;;15.95;48.33
35910;BME280;22004;49.120;-0.200;2023-04-07T09:36:48;101906.91;;;14.77;52.94
35910;BME280;22004;49.120;-0.200;2023-04-07T09:39:13;101909.59;;;16.05;50.73
35910;BME280;22004;49.120;-0.200;2023-04-07T09:41:39;101906.09;;;16.25;49.13
35910;BME280;22004;49.120;-0.200;2023-04-07T09:44:05;101902.50;;;16.40;48.46
35910;BME280;22004;49.120;-0.200;2023-04-07T09:46:31;101899.84;;;16.61;48.93
35910;BME280;22004;49.120;-0.200;2023-04-07T09:49:03;101900.34;;;14.09;53.50
35910;BME280;22004;49.120;-0.200;2023-04-07T09:51:32;101905.28;;;13.25;55.51
35910;BME280;22004;49.120;-0.200;2023-04-07T09:54:00;101904.78;;;13.38;56.23
35910;BME280;22004;49.120;-0.200;2023-04-07T09:56:26;101904.19;;;14.99;52.70
35910;BME280;22004;49.120;-0.200;2023-04-07T09:58:53;101898.63;;;13.60;54.87
35910;BME280;22004;49.120;-0.200;2023-04-07T10:01:20;101903.84;;;15.55;48.27
35910;BME280;22004;49.120;-0.200;2023-04-07T10:03:46;101893.41;;;15.52;49.87
35910;BME280;22004;49.120;-0.200;2023-04-07T10:06:12;101893.16;;;15.62;48.71
35910;BME280;22004;49.120;-0.200;2023-04-07T10:08:40;101893.81;;;16.08;49.35
35910;BME280;22004;49.120;-0.200;2023-04-07T10:11:06;101899.81;;;14.98;51.94
35910;BME280;22004;49.120;-0.200;2023-04-07T10:13:33;101898.38;;;14.88;51.18
35910;BME280;22004;49.120;-0.200;2023-04-07T10:16:04;101899.81;;;15.51;51.32
35910;BME280;22004;49.120;-0.200;2023-04-07T10:18:35;101888.34;;;15.34;50.93
35910;BME280;22004;49.120;-0.200;2023-04-07T10:21:03;101887.16;;;15.37;51.87
35910;BME280;22004;49.120;-0.200;2023-04-07T10:26:34;101884.78;;;14.96;50.91
35910;BME280;22004;49.120;-0.200;2023-04-07T10:29:09;101884.06;;;15.40;50.40
35910;BME280;22004;49.120;-0.200;2023-04-07T10:31:36;101877.03;;;15.83;50.99
35910;BME280;22004;49.120;-0.200;2023-04-07T10:34:02;101878.66;;;15.02;51.68
35910;BME280;22004;49.120;-0.200;2023-04-07T10:36:28;101884.69;;;13.96;52.32
35910;BME280;22004;49.120;-0.200;2023-04-07T10:41:32;101883.78;;;14.97;49.02
35910;BME280;22004;49.120;-0.200;2023-04-07T10:43:59;101873.44;;;15.53;52.27
35910;BME280;22004;49.120;-0.200;2023-04-07T10:46:24;101872.47;;;15.31;49.95
35910;BME280;22004;49.120;-0.200;2023-04-07T10:49:09;101876.94;;;15.76;50.05
35910;BME280;22004;49.120;-0.200;2023-04-07T10:51:34;101875.13;;;14.79;53.86
35910;BME280;22004;49.120;-0.200;2023-04-07T10:54:17;101885.50;;;15.13;52.24
35910;BME280;22004;49.120;-0.200;2023-04-07T10:59:27;101878.38;;;15.49;51.56
35910;BME280;22004;49.120;-0.200;2023-04-07T11:04:38;101883.59;;;14.76;51.95
35910;BME280;22004;49.120;-0.200;2023-04-07T11:07:03;101886.25;;;15.21;51.78
35910;BME280;22004;49.120;-0.200;2023-04-07T11:09:29;101889.19;;;15.49;47.07
35910;BME280;22004;49.120;-0.200;2023-04-07T11:11:54;101887.53;;;15.48;51.36
35910;BME280;22004;49.120;-0.200;2023-04-07T11:14:26;101880.66;;;13.92;54.19
35910;BME280;22004;49.120;-0.200;2023-04-07T11:16:52;101882.63;;;14.91;53.23
35910;BME280;22004;49.120;-0.200;2023-04-07T11:19:18;101887.38;;;14.89;52.35
35910;BME280;22004;49.120;-0.200;2023-04-07T11:21:44;101881.75;;;15.81;51.69
35910;BME280;22004;49.120;-0.200;2023-04-07T11:24:09;101891.88;;;14.12;54.26
35910;BME280;22004;49.120;-0.200;2023-04-07T11:26:39;101886.59;;;13.87;54.58
35910;BME280;22004;49.120;-0.200;2023-04-07T11:29:06;101886.13;;;15.38;51.19
35910;BME280;22004;49.120;-0.200;2023-04-07T11:31:32;101887.47;;;15.19;51.28
35910;BME280;22004;49.120;-0.200;2023-04-07T11:34:02;101881.44;;;14.94;51.11
35910;BME280;22004;49.120;-0.200;2023-04-07T11:36:33;101880.28;;;15.64;50.38
35910;BME280;22004;49.120;-0.200;2023-04-07T11:38:59;101892.13;;;15.25;50.18
35910;BME280;22004;49.120;-0.200;2023-04-07T11:41:27;101884.44;;;14.99;51.47
35910;BME280;22004;49.120;-0.200;2023-04-07T11:44:08;101879.28;;;14.89;50.36
35910;BME280;22004;49.120;-0.200;2023-04-07T11:46:34;101876.78;;;15.40;50.37
35910;BME280;22004;49.120;-0.200;2023-04-07T11:49:13;101880.00;;;15.73;51.49
35910;BME280;22004;49.120;-0.200;2023-04-07T11:51:41;101879.03;;;15.51;50.17
35910;BME280;22004;49.120;-0.200;2023-04-07T11:54:07;101892.97;;;14.34;50.40
35910;BME280;22004;49.120;-0.200;2023-04-07T11:56:45;101887.88;;;15.45;52.43
35910;BME280;22004;49.120;-0.200;2023-04-07T11:59:24;101883.56;;;15.36;52.29
35910;BME280;22004;49.120;-0.200;2023-04-07T12:01:51;101897.28;;;15.72;51.77
35910;BME280;22004;49.120;-0.200;2023-04-07T12:04:17;101901.13;;;15.40;50.52
35910;BME280;22004;49.120;-0.200;2023-04-07T12:06:44;101892.78;;;15.12;51.18
35910;BME280;22004;49.120;-0.200;2023-04-07T12:09:30;101899.75;;;14.84;51.35
35910;BME280;22004;49.120;-0.200;2023-04-07T12:11:58;101893.94;;;14.02;54.31
35910;BME280;22004;49.120;-0.200;2023-04-07T12:14:24;101902.22;;;14.93;52.04
35910;BME280;22004;49.120;-0.200;2023-04-07T12:16:50;101898.53;;;15.47;52.24
35910;BME280;22004;49.120;-0.200;2023-04-07T12:19:17;101897.78;;;14.78;52.47
35910;BME280;22004;49.120;-0.200;2023-04-07T12:21:42;101896.81;;;14.47;52.48
35910;BME280;22004;49.120;-0.200;2023-04-07T12:24:08;101906.00;;;14.22;52.26
35910;BME280;22004;49.120;-0.200;2023-04-07T12:26:33;101905.53;;;14.58;53.13
35910;BME280;22004;49.120;-0.200;2023-04-07T12:28:58;101904.88;;;14.79;52.68
35910;BME280;22004;49.120;-0.200;2023-04-07T12:31:31;101901.00;;;14.96;52.92
35910;BME280;22004;49.120;-0.200;2023-04-07T12:33:57;101909.22;;;15.25;51.73
35910;BME280;22004;49.120;-0.200;2023-04-07T12:36:24;101910.09;;;15.03;51.02
35910;BME280;22004;49.120;-0.200;2023-04-07T12:38:52;101905.59;;;15.33;52.48
35910;BME280;22004;49.120;-0.200;2023-04-07T12:41:17;101910.06;;;15.41;52.67
35910;BME280;22004;49.120;-0.200;2023-04-07T12:43:43;101911.75;;;15.27;52.81
35910;BME280;22004;49.120;-0.200;2023-04-07T12:46:08;101899.72;;;14.92;52.61
35910;BME280;22004;49.120;-0.200;2023-04-07T12:48:33;101898.00;;;15.51;52.02
35910;BME280;22004;49.120;-0.200;2023-04-07T12:50:59;101894.66;;;15.12;53.39
35910;BME280;22004;49.120;-0.200;2023-04-07T12:53:25;101897.44;;;15.18;52.58
35910;BME280;22004;49.120;-0.200;2023-04-07T12:55:51;101901.88;;;14.73;52.54
35910;BME280;22004;49.120;-0.200;2023-04-07T12:58:17;101903.69;;;14.11;54.66
35910;BME280;22004;49.120;-0.200;2023-04-07T13:00:43;101900.31;;;15.02;54.26
35910;BME280;22004;49.120;-0.200;2023-04-07T13:03:09;101901.78;;;15.05;55.08